Hlavní strana
METAR-TAF:

METAR-TAF

Letiště :

Chartúm, Súdán

zeměpisná šířka: 15-36N, zeměpisná délka: 032-33E, výška: 382 m

Aktuální stav počasí

Zpráva byla vytvořena před 14 minutami, v 08:30 UTC
Jihojihozápadní vítr 10 kt
Teplota 35°C
Vlhkost vzduchu 32%
Tlak 1011 hPa
Viditelnost 10 km a více
Žádná oblačnost pod 1500 m, nevyskytují se cumulonimby.

METAR: HSSS 200830Z 21010KT CAVOK 35/16 Q1011 NOSIG

Čas: 11:44 (08:44 UTC)

Předpověď počasí

Zpráva byla vytvořena před 3 hodinami a 44 minutami, v 05:00 UTC
Předpověď platná od 20 v 06 UTC do 21 v 12 UTC
Jihojihozápadní vítr 8 kt s nárazy do 16 kt
Viditelnost 10 km a více
Žádná oblačnost pod 1500 m, nevyskytují se cumulonimby.
Dočasný
od 20 v 09 UTC do 20 v 18 UTC
Viditelnost 10 km a více
Skoro jasno ve výšce 4000 ft
Polojasno ve výšce 14000 ft

TAF: HSSS 200500Z 2006/2112 21008G16KT CAVOK TEMPO 2009/2018 9999 FEW040 SCT140

Stav a předpovědi počasí z více než 4 000 letišť (zprávy METAR a TAF).

Červené a žluté tečky na mapě představují dostupné meteorologické stanice.

Když kurzor umístíte na tečku, zobrazí se název stanice.

Pak kliknutím zobrazíte stav a předpověď počasí.

Chcete-li změnit mapu, kliknutím na zelené tlačítko se znaménkem +mapu přiblížíte, kliknutím na zelené tlačítko se znaménkem – mapu oddálíte a kliknutím na zelené šipky přejdete na sousední mapy.


METAR-TAF: